Time;durP1;ratioP1;P1;durP2;ratioP2;P2;SDS_P1;SDS_P2;PMS_P1;PMS_P2;Temp;Humidity;BMP_temperature;BMP_pressure;BME280_temperature;BME280_humidity;BME280_pressure;Samples;Min_cycle;Max_cycle;Signal;HPM_P1;HPM_P2
2022/06/25 00:01:55;;;;;;;7.75;5.43;;;23.80;60.90;;;;;;5060573;28;20113;-77
2022/06/25 00:07:06;;;;;;;5.57;5.00;;;23.80;60.90;;;;;;5063121;28;20051;-77
2022/06/25 00:09:32;;;;;;;5.25;4.75;;;23.70;61.00;;;;;;5061373;28;20415;-77
2022/06/25 00:14:49;;;;;;;6.35;4.68;;;23.70;61.00;;;;;;5054570;28;20024;-77
2022/06/25 00:17:15;;;;;;;7.65;4.75;;;23.70;61.20;;;;;;5060816;28;20029;-77
2022/06/25 00:19:42;;;;;;;6.40;4.80;;;23.70;61.20;;;;;;5063599;28;20036;-77
2022/06/25 00:22:08;;;;;;;5.70;4.65;;;23.70;61.30;;;;;;5044064;28;20080;-77
2022/06/25 00:24:34;;;;;;;7.28;4.93;;;23.70;61.30;;;;;;5064518;28;20032;-76
2022/06/25 00:27:00;;;;;;;5.38;4.85;;;23.70;61.50;;;;;;5061608;28;20037;-76
2022/06/25 00:29:25;;;;;;;6.70;4.85;;;23.60;61.40;;;;;;5060562;28;20636;-76
2022/06/25 00:31:51;;;;;;;7.82;6.03;;;23.60;61.40;;;;;;5061002;28;20086;-76
2022/06/25 00:34:17;;;;;;;6.68;5.18;;;23.70;61.50;;;;;;5061534;28;20028;-76
2022/06/25 00:36:43;;;;;;;7.13;5.15;;;23.60;61.60;;;;;;5060145;28;20515;-76
2022/06/25 00:39:09;;;;;;;6.65;4.65;;;23.60;61.60;;;;;;5093559;28;20047;-76
2022/06/25 00:41:35;;;;;;;6.72;5.45;;;23.60;61.70;;;;;;5077258;28;20606;-76
2022/06/25 00:44:07;;;;;;;7.78;5.35;;;23.60;61.60;;;;;;5060955;28;20530;-76
2022/06/25 00:46:33;;;;;;;9.80;5.68;;;23.60;61.70;;;;;;5059998;28;20597;-77
2022/06/25 00:48:59;;;;;;;5.63;5.00;;;23.60;61.70;;;;;;5061043;28;20048;-76
2022/06/25 00:51:27;;;;;;;8.48;5.30;;;23.60;61.80;;;;;;5061412;28;20560;-76
2022/06/25 00:53:58;;;;;;;7.30;4.82;;;23.60;61.80;;;;;;5060978;28;20451;-76
2022/06/25 00:56:27;;;;;;;9.57;4.90;;;23.50;61.80;;;;;;5043010;28;20041;-77
2022/06/25 00:58:58;;;;;;;6.53;4.78;;;23.50;61.90;;;;;;5061871;28;20531;-76
2022/06/25 01:01:25;;;;;;;9.38;5.15;;;23.60;62.00;;;;;;5094594;28;20074;-76
2022/06/25 01:03:51;;;;;;;7.93;5.78;;;23.50;61.90;;;;;;5063816;28;20098;-76
2022/06/25 01:06:18;;;;;;;8.40;5.20;;;23.50;62.00;;;;;;5046905;28;20040;-77
2022/06/25 01:08:43;;;;;;;7.60;5.05;;;23.50;62.00;;;;;;5058500;28;20395;-76
2022/06/25 01:11:11;;;;;;;7.15;5.18;;;23.50;62.10;;;;;;5092769;28;20048;-76
2022/06/25 01:13:37;;;;;;;5.93;5.00;;;23.50;62.10;;;;;;5095955;28;20124;-76
2022/06/25 01:16:03;;;;;;;5.80;4.95;;;23.50;62.10;;;;;;5063321;28;20048;-75
2022/06/25 01:18:29;;;;;;;6.22;4.97;;;23.50;62.30;;;;;;5095446;28;20051;-76
2022/06/25 01:20:55;;;;;;;6.65;5.32;;;23.50;62.30;;;;;;5062304;28;20036;-76
2022/06/25 01:23:22;;;;;;;7.00;5.50;;;23.40;62.30;;;;;;5063787;28;20044;-76
2022/06/25 01:25:48;;;;;;;11.15;5.45;;;23.50;62.30;;;;;;5075624;28;20028;-76
2022/06/25 01:28:14;;;;;;;8.05;5.78;;;23.50;62.30;;;;;;5061265;28;20085;-76
2022/06/25 01:30:40;;;;;;;7.78;5.32;;;23.60;62.30;;;;;;5062831;28;20044;-76
2022/06/25 01:33:08;;;;;;;9.20;5.32;;;23.60;62.30;;;;;;5090583;28;20044;-75
2022/06/25 01:35:35;;;;;;;8.60;4.75;;;23.60;62.20;;;;;;5059843;28;20029;-76
2022/06/25 01:38:02;;;;;;;7.22;5.68;;;23.70;62.20;;;;;;5062483;28;20028;-76
2022/06/25 01:40:32;;;;;;;9.18;5.32;;;23.70;62.30;;;;;;5059809;28;20040;-76
2022/06/25 01:42:58;;;;;;;8.05;5.57;;;23.70;62.10;;;;;;5059047;28;20036;-76
2022/06/25 01:45:33;;;;;;;7.95;5.70;;;23.80;62.20;;;;;;5058409;28;20083;-76
2022/06/25 01:48:00;;;;;;;6.97;5.63;;;23.80;62.30;;;;;;5060474;28;20044;-76
2022/06/25 01:50:27;;;;;;;6.90;5.15;;;23.80;62.40;;;;;;5062534;28;20049;-75
2022/06/25 01:52:54;;;;;;;8.48;5.60;;;23.70;62.40;;;;;;5058909;28;20044;-77
2022/06/25 01:55:21;;;;;;;6.18;5.57;;;23.70;62.40;;;;;;5058202;28;20033;-77
2022/06/25 01:57:48;;;;;;;6.95;5.30;;;23.70;62.40;;;;;;5059995;28;20045;-76
2022/06/25 02:00:26;;;;;;;7.75;5.30;;;23.70;62.50;;;;;;5062762;28;20036;-76
2022/06/25 02:02:59;;;;;;;5.88;5.00;;;23.70;62.70;;;;;;5057943;28;20518;-76
2022/06/25 02:08:14;;;;;;;8.63;5.65;;;23.70;62.80;;;;;;5074739;28;20515;-76
2022/06/25 02:10:46;;;;;;;5.45;4.95;;;23.70;62.80;;;;;;5058451;28;20086;-76
2022/06/25 02:13:13;;;;;;;7.75;5.53;;;23.70;62.90;;;;;;5092161;28;20070;-76
2022/06/25 02:15:41;;;;;;;8.05;5.03;;;23.70;62.80;;;;;;5059421;28;20024;-76
2022/06/25 02:18:08;;;;;;;10.40;5.60;;;23.90;62.80;;;;;;5057799;28;20412;-76
2022/06/25 02:20:34;;;;;;;10.02;5.25;;;24.00;62.70;;;;;;5046686;28;20043;-76
2022/06/25 02:23:01;;;;;;;6.68;5.32;;;24.10;63.10;;;;;;5059232;28;20048;-76
2022/06/25 02:25:27;;;;;;;5.90;4.90;;;24.20;63.20;;;;;;5076822;28;20102;-76
2022/06/25 02:27:53;;;;;;;6.18;4.88;;;24.30;63.40;;;;;;5058833;28;20470;-75
2022/06/25 02:30:19;;;;;;;5.80;5.18;;;24.40;63.30;;;;;;5060745;28;20131;-76
2022/06/25 02:32:45;;;;;;;6.15;5.10;;;24.60;62.90;;;;;;5059485;28;20033;-76
2022/06/25 02:35:10;;;;;;;8.85;5.38;;;24.60;62.50;;;;;;5060091;28;20397;-76
2022/06/25 02:37:37;;;;;;;5.97;5.20;;;24.80;62.40;;;;;;5076208;28;20025;-76
2022/06/25 02:40:05;;;;;;;7.57;5.40;;;24.80;62.20;;;;;;5062490;28;20037;-76
2022/06/25 02:42:34;;;;;;;6.88;5.13;;;24.90;62.00;;;;;;5073190;28;20033;-76
2022/06/25 02:45:03;;;;;;;6.75;4.93;;;25.00;61.80;;;;;;5091386;28;20127;-76
2022/06/25 02:47:29;;;;;;;7.22;4.88;;;25.10;61.40;;;;;;5048362;28;20504;-76
2022/06/25 02:50:08;;;;;;;6.38;4.72;;;25.20;61.60;;;;;;5063781;28;20044;-75
2022/06/25 02:52:36;;;;;;;5.97;4.57;;;25.30;62.10;;;;;;5063039;28;20103;-76
2022/06/25 02:55:02;;;;;;;5.97;4.65;;;25.40;61.50;;;;;;5064523;28;20036;-76
2022/06/25 03:00:21;;;;;;;5.82;4.63;;;25.50;61.70;;;;;;5051244;28;20029;-76
2022/06/25 03:02:49;;;;;;;5.43;4.40;;;25.60;61.40;;;;;;5078366;28;20025;-75
2022/06/25 03:05:15;;;;;;;6.13;4.50;;;25.70;61.40;;;;;;5061064;28;20052;-75
2022/06/25 03:07:41;;;;;;;5.25;4.55;;;25.70;61.20;;;;;;5062073;28;20021;-76
2022/06/25 03:10:08;;;;;;;4.90;4.45;;;25.80;61.10;;;;;;5095280;28;20510;-75
2022/06/25 03:12:35;;;;;;;5.60;4.80;;;25.80;61.10;;;;;;5048739;28;20029;-77
2022/06/25 03:15:17;;;;;;;8.25;5.00;;;25.80;61.80;;;;;;5062802;28;20052;-76
2022/06/25 03:17:44;;;;;;;5.10;4.55;;;25.80;61.60;;;;;;5065402;28;20037;-76
2022/06/25 03:20:37;;;;;;;5.18;4.55;;;25.80;62.60;;;;;;5045202;28;20032;-76
2022/06/25 03:23:05;;;;;;;5.50;4.05;;;25.90;61.50;;;;;;5028498;28;20624;-76
2022/06/25 03:25:32;;;;;;;5.72;4.18;;;26.00;61.20;;;;;;5012764;28;20094;-76
2022/06/25 03:28:03;;;;;;;5.47;4.10;;;26.10;60.70;;;;;;5029603;28;20504;-76
2022/06/25 03:30:29;;;;;;;4.90;4.18;;;26.20;60.90;;;;;;5011974;28;20028;-76
2022/06/25 03:32:57;;;;;;;5.32;4.03;;;26.30;60.70;;;;;;5045529;28;20037;-76
2022/06/25 03:35:23;;;;;;;7.20;4.35;;;26.30;60.70;;;;;;5045691;28;20033;-76
2022/06/25 03:38:12;;;;;;;6.07;4.40;;;26.40;60.40;;;;;;5026849;28;20033;-76
2022/06/25 03:40:40;;;;;;;4.47;4.07;;;26.50;60.40;;;;;;5040272;28;20037;-76
2022/06/25 03:43:08;;;;;;;4.55;4.15;;;26.60;60.00;;;;;;5028972;28;20037;-76
2022/06/25 03:45:38;;;;;;;4.22;3.83;;;26.70;59.60;;;;;;4996208;28;20547;-76
2022/06/25 03:48:05;;;;;;;4.43;4.03;;;26.80;59.80;;;;;;5027807;28;20087;-77
2022/06/25 03:50:36;;;;;;;4.20;3.60;;;26.80;59.40;;;;;;5027298;28;20512;-76
2022/06/25 03:53:02;;;;;;;4.32;3.92;;;26.90;59.20;;;;;;5035430;28;20191;-77
2022/06/25 03:55:28;;;;;;;4.30;3.92;;;27.00;59.00;;;;;;5042771;28;20056;-76
2022/06/25 03:57:54;;;;;;;5.60;4.00;;;27.10;58.90;;;;;;5058727;28;20052;-76
2022/06/25 04:00:27;;;;;;;4.30;3.88;;;27.20;58.60;;;;;;5094696;28;20127;-76
2022/06/25 04:02:58;;;;;;;7.15;4.00;;;27.20;58.30;;;;;;5060147;28;20051;-76
2022/06/25 04:05:27;;;;;;;4.32;3.50;;;27.30;58.20;;;;;;5064495;28;20123;-77
2022/06/25 04:07:55;;;;;;;4.80;3.50;;;27.40;57.90;;;;;;5065105;28;20642;-77
2022/06/25 04:10:21;;;;;;;5.50;3.72;;;27.50;57.80;;;;;;5062946;28;20102;-77
2022/06/25 04:12:47;;;;;;;3.70;3.38;;;27.50;57.60;;;;;;5093842;28;20041;-77
2022/06/25 04:15:13;;;;;;;4.57;3.67;;;27.60;57.40;;;;;;5077800;28;20389;-76
2022/06/25 04:17:39;;;;;;;4.00;3.63;;;27.70;57.30;;;;;;5092974;28;20040;-76
2022/06/25 04:20:07;;;;;;;5.82;3.83;;;27.70;57.10;;;;;;5060880;28;20083;-76
2022/06/25 04:22:33;;;;;;;4.13;3.83;;;27.80;57.00;;;;;;5093035;28;20029;-76
2022/06/25 04:25:01;;;;;;;5.65;3.67;;;27.90;56.80;;;;;;5061379;28;20028;-76
2022/06/25 04:30:11;;;;;;;4.38;3.92;;;28.10;56.60;;;;;;5092248;28;20041;-77
2022/06/25 04:32:42;;;;;;;4.57;3.97;;;28.20;56.60;;;;;;5093341;28;20037;-77
2022/06/25 04:35:16;;;;;;;4.15;3.72;;;28.30;56.20;;;;;;5061039;28;20040;-77
2022/06/25 04:37:44;;;;;;;4.32;3.78;;;28.40;55.60;;;;;;5063886;28;20418;-76
2022/06/25 04:40:13;;;;;;;3.80;3.45;;;28.50;55.50;;;;;;5060470;28;20565;-77
2022/06/25 04:42:40;;;;;;;5.45;3.80;;;28.60;55.20;;;;;;5062477;28;20032;-77
2022/06/25 04:45:07;;;;;;;3.65;3.20;;;28.60;55.00;;;;;;5094007;28;20040;-77
2022/06/25 04:47:40;;;;;;;4.63;4.10;;;28.70;54.80;;;;;;5046322;28;20106;-77
2022/06/25 04:50:38;;;;;;;4.65;3.40;;;28.80;54.40;;;;;;5060734;28;20047;-77
2022/06/25 04:53:04;;;;;;;4.03;3.58;;;28.80;54.30;;;;;;5063122;28;20457;-76
2022/06/25 04:55:30;;;;;;;4.40;3.53;;;28.90;54.30;;;;;;5047704;28;20037;-77
2022/06/25 04:57:56;;;;;;;5.47;3.85;;;28.90;54.20;;;;;;5060272;28;20028;-77
2022/06/25 05:00:40;;;;;;;4.13;3.72;;;29.00;54.30;;;;;;5062747;28;20068;-76
2022/06/25 05:03:07;;;;;;;4.40;3.63;;;28.90;54.00;;;;;;5074584;28;20060;-76
2022/06/25 05:05:33;;;;;;;4.10;3.72;;;29.00;54.10;;;;;;5064013;28;20073;-76
2022/06/25 05:08:08;;;;;;;4.40;3.63;;;29.10;54.00;;;;;;5049698;28;20634;-76
2022/06/25 05:10:34;;;;;;;6.45;3.78;;;29.10;53.90;;;;;;5059600;28;20029;-76
2022/06/25 05:13:12;;;;;;;5.93;3.58;;;29.20;53.90;;;;;;5054734;28;20115;-76
2022/06/25 05:15:42;;;;;;;7.20;3.60;;;29.20;53.90;;;;;;5093721;28;20032;-76
2022/06/25 05:18:11;;;;;;;5.10;3.70;;;29.30;53.60;;;;;;5075440;28;20120;-76
2022/06/25 05:20:38;;;;;;;4.07;3.67;;;29.40;53.50;;;;;;5093577;28;20454;-77
2022/06/25 05:23:05;;;;;;;4.32;3.58;;;29.50;53.20;;;;;;5091427;28;20407;-77
2022/06/25 05:25:31;;;;;;;6.15;4.40;;;29.50;53.10;;;;;;5057980;28;20090;-76
2022/06/25 05:27:56;;;;;;;4.22;3.83;;;29.50;53.10;;;;;;5093707;28;20032;-77
2022/06/25 05:30:22;;;;;;;4.22;3.80;;;29.60;53.10;;;;;;5059280;28;20920;-77
2022/06/25 05:32:48;;;;;;;4.68;4.03;;;29.60;53.00;;;;;;5059791;28;20029;-77
2022/06/25 05:35:15;;;;;;;4.15;3.63;;;29.60;53.10;;;;;;5058710;28;20028;-75
2022/06/25 05:37:41;;;;;;;4.30;3.88;;;29.60;53.00;;;;;;5062883;28;20111;-75
2022/06/25 05:40:09;;;;;;;4.50;3.92;;;29.60;52.90;;;;;;5059176;28;20129;-76
2022/06/25 05:42:36;;;;;;;8.57;4.50;;;29.70;52.90;;;;;;5093220;28;20526;-76
2022/06/25 05:45:03;;;;;;;4.55;4.15;;;29.70;52.80;;;;;;5060353;28;20074;-76
2022/06/25 05:47:29;;;;;;;4.10;3.80;;;29.80;52.60;;;;;;5058570;28;20482;-76
2022/06/25 05:49:55;;;;;;;6.15;4.07;;;29.80;52.40;;;;;;5057247;28;20094;-76
2022/06/25 05:52:22;;;;;;;4.70;4.18;;;29.90;52.30;;;;;;5059612;28;20124;-76
2022/06/25 05:54:48;;;;;;;5.97;4.15;;;29.90;52.20;;;;;;5057682;28;20060;-76
2022/06/25 05:57:14;;;;;;;5.00;3.92;;;30.00;52.00;;;;;;5059903;28;20503;-76
2022/06/25 05:59:41;;;;;;;5.78;4.30;;;30.00;51.80;;;;;;5056796;28;20029;-76
2022/06/25 06:02:07;;;;;;;4.82;4.30;;;30.10;51.70;;;;;;5060694;28;20033;-76
2022/06/25 06:04:33;;;;;;;6.85;4.13;;;30.10;51.70;;;;;;5058724;28;20024;-76
2022/06/25 06:07:00;;;;;;;4.13;3.78;;;30.20;51.60;;;;;;5063579;28;20029;-76
2022/06/25 06:09:31;;;;;;;5.32;4.47;;;30.20;51.60;;;;;;5060194;28;20403;-76
2022/06/25 06:11:58;;;;;;;4.65;4.10;;;30.20;51.80;;;;;;5060555;28;20037;-76
2022/06/25 06:14:24;;;;;;;5.57;4.18;;;30.20;51.80;;;;;;5057801;28;20539;-76
2022/06/25 06:16:50;;;;;;;5.07;4.20;;;30.20;51.60;;;;;;5059249;28;20040;-76
2022/06/25 06:19:16;;;;;;;4.78;4.30;;;30.20;51.50;;;;;;5059904;28;20024;-76
2022/06/25 06:21:42;;;;;;;5.90;4.70;;;30.20;51.50;;;;;;5060038;28;20025;-76
2022/06/25 06:24:08;;;;;;;5.95;4.63;;;30.20;51.60;;;;;;5058575;28;20413;-76
2022/06/25 06:26:35;;;;;;;4.93;4.32;;;30.20;51.50;;;;;;5057864;28;20025;-76
2022/06/25 06:29:01;;;;;;;5.18;4.22;;;30.20;51.50;;;;;;5076279;28;20033;-76
2022/06/25 06:31:27;;;;;;;4.63;4.20;;;30.20;51.50;;;;;;5063028;28;20325;-76
2022/06/25 06:33:53;;;;;;;5.40;4.10;;;30.20;51.40;;;;;;5066374;28;20086;-76
2022/06/25 06:36:19;;;;;;;4.75;4.32;;;30.20;51.30;;;;;;5062862;28;20119;-77
2022/06/25 06:38:45;;;;;;;5.60;4.20;;;30.20;51.20;;;;;;5064209;28;20029;-77
2022/06/25 06:41:12;;;;;;;4.40;4.00;;;30.20;51.10;;;;;;5064139;28;20036;-76
2022/06/25 06:43:39;;;;;;;4.57;4.18;;;30.20;51.00;;;;;;5063116;28;20120;-77
2022/06/25 06:46:06;;;;;;;5.00;4.20;;;30.20;51.00;;;;;;5065352;28;20025;-76
2022/06/25 06:48:31;;;;;;;4.32;3.92;;;30.20;50.90;;;;;;5060846;28;20422;-76
2022/06/25 06:50:57;;;;;;;4.38;3.97;;;30.20;50.70;;;;;;5066667;28;20041;-76
2022/06/25 06:53:23;;;;;;;5.20;4.47;;;30.20;50.60;;;;;;5063577;28;20106;-76
2022/06/25 06:55:50;;;;;;;7.07;4.32;;;30.20;50.70;;;;;;5062446;28;20461;-76
2022/06/25 06:58:17;;;;;;;4.60;3.97;;;30.20;50.60;;;;;;5062126;28;20028;-77
2022/06/25 07:00:43;;;;;;;5.15;4.10;;;30.20;50.10;;;;;;5064428;28;20063;-77
2022/06/25 07:03:09;;;;;;;4.28;3.88;;;30.20;50.30;;;;;;5062816;28;20040;-77
2022/06/25 07:05:35;;;;;;;4.60;4.20;;;30.20;50.00;;;;;;5062023;28;20028;-77
2022/06/25 07:08:01;;;;;;;4.57;4.00;;;30.20;50.00;;;;;;5061834;28;20511;-77
2022/06/25 07:10:28;;;;;;;4.38;3.97;;;30.20;50.00;;;;;;5064522;28;20457;-76
2022/06/25 07:12:54;;;;;;;4.30;3.80;;;30.20;49.90;;;;;;5062554;28;20115;-77
2022/06/25 07:15:20;;;;;;;4.07;3.70;;;30.20;49.70;;;;;;5061399;28;20079;-77
2022/06/25 07:17:46;;;;;;;4.70;3.70;;;30.20;49.30;;;;;;5064711;28;20039;-77
2022/06/25 07:20:12;;;;;;;4.38;3.97;;;30.20;49.50;;;;;;5063140;28;20033;-76
2022/06/25 07:22:38;;;;;;;3.88;3.58;;;30.20;49.40;;;;;;5064182;28;20028;-77
2022/06/25 07:25:04;;;;;;;4.13;3.72;;;30.20;49.40;;;;;;5064423;28;20021;-77
2022/06/25 07:27:31;;;;;;;4.63;3.60;;;30.10;49.40;;;;;;5063346;28;20028;-77
2022/06/25 07:29:56;;;;;;;7.50;3.92;;;30.10;49.40;;;;;;5059677;28;20131;-76
2022/06/25 07:32:22;;;;;;;5.22;3.95;;;30.10;49.50;;;;;;5062105;28;20117;-75
2022/06/25 07:34:48;;;;;;;7.82;4.10;;;30.00;49.50;;;;;;5093278;28;20033;-75
2022/06/25 07:37:15;;;;;;;5.68;3.90;;;29.90;49.60;;;;;;5059703;28;20516;-75
2022/06/25 07:39:41;;;;;;;4.55;3.95;;;29.90;49.70;;;;;;5060538;28;20043;-76
2022/06/25 07:42:06;;;;;;;6.53;3.78;;;29.90;50.00;;;;;;5062878;28;20029;-76
2022/06/25 07:44:32;;;;;;;4.32;3.72;;;29.80;49.90;;;;;;5061942;28;20035;-76
2022/06/25 07:46:59;;;;;;;3.92;3.63;;;29.80;49.90;;;;;;5049410;28;20032;-76
2022/06/25 07:49:25;;;;;;;3.58;3.28;;;29.80;49.90;;;;;;5077227;28;20132;-76
2022/06/25 07:51:57;;;;;;;4.25;3.80;;;29.80;49.90;;;;;;5061739;28;20074;-76
2022/06/25 07:54:24;;;;;;;4.75;3.67;;;29.70;49.90;;;;;;5059197;28;20123;-75
2022/06/25 07:56:50;;;;;;;5.82;4.20;;;29.70;49.60;;;;;;5060798;28;20076;-76
2022/06/25 07:59:16;;;;;;;4.78;4.22;;;29.70;49.50;;;;;;5097400;28;20515;-77
2022/06/25 08:01:43;;;;;;;4.53;4.10;;;29.70;49.70;;;;;;5061446;28;20408;-76
2022/06/25 08:04:09;;;;;;;4.20;3.80;;;29.70;49.70;;;;;;5061176;28;20040;-76
2022/06/25 08:06:37;;;;;;;4.43;4.03;;;29.60;49.80;;;;;;5061066;28;20036;-76
2022/06/25 08:09:05;;;;;;;4.30;3.90;;;29.50;49.80;;;;;;5060055;28;20453;-76
2022/06/25 08:11:32;;;;;;;5.43;3.85;;;29.50;50.00;;;;;;5062338;28;20044;-77
2022/06/25 08:13:58;;;;;;;4.60;4.20;;;29.50;50.30;;;;;;5062062;28;20036;-76
2022/06/25 08:16:25;;;;;;;4.45;3.72;;;29.40;50.30;;;;;;5048112;28;20056;-76
2022/06/25 08:18:52;;;;;;;7.80;4.10;;;29.40;50.40;;;;;;5063188;28;20514;-77
2022/06/25 08:21:18;;;;;;;6.05;4.10;;;29.40;50.50;;;;;;5060107;28;20461;-77
2022/06/25 08:23:44;;;;;;;5.38;3.72;;;29.40;50.40;;;;;;5062029;28;20043;-77
2022/06/25 08:26:10;;;;;;;6.30;3.60;;;29.30;50.20;;;;;;5060632;28;20576;-76
2022/06/25 08:28:36;;;;;;;5.55;3.72;;;29.30;49.90;;;;;;5059186;28;20047;-76
2022/06/25 08:31:03;;;;;;;3.67;3.38;;;29.30;49.90;;;;;;5062152;28;20032;-77
2022/06/25 08:33:29;;;;;;;4.03;3.55;;;29.20;49.80;;;;;;5060503;28;20024;-77
2022/06/25 08:35:55;;;;;;;4.10;3.33;;;29.20;49.90;;;;;;5062046;28;20705;-77
2022/06/25 08:38:21;;;;;;;5.22;3.83;;;29.20;50.50;;;;;;5060581;28;20741;-77
2022/06/25 08:40:47;;;;;;;4.53;3.65;;;29.10;50.00;;;;;;5093409;28;20485;-76
2022/06/25 08:43:14;;;;;;;5.95;3.78;;;29.10;50.30;;;;;;5044576;28;20043;-76
2022/06/25 08:45:40;;;;;;;4.25;3.50;;;29.10;50.00;;;;;;5062361;28;20339;-77
2022/06/25 08:48:20;;;;;;;5.80;3.75;;;29.10;50.10;;;;;;5064034;28;20094;-77
2022/06/25 08:50:48;;;;;;;5.68;3.30;;;29.10;50.40;;;;;;5060488;28;20051;-76
2022/06/25 08:53:16;;;;;;;4.15;3.70;;;29.00;49.70;;;;;;5059085;28;20510;-77
2022/06/25 08:55:44;;;;;;;4.18;3.40;;;29.00;49.80;;;;;;5059902;28;20040;-77
2022/06/25 08:58:11;;;;;;;3.95;3.58;;;29.00;50.10;;;;;;5061489;28;20041;-76
2022/06/25 09:00:41;;;;;;;4.80;3.60;;;29.00;50.10;;;;;;5061291;28;20499;-76
2022/06/25 09:03:08;;;;;;;4.88;3.60;;;28.90;50.20;;;;;;5061418;28;20127;-77
2022/06/25 09:05:42;;;;;;;4.50;3.65;;;28.90;50.10;;;;;;5075683;28;20388;-76
2022/06/25 09:08:11;;;;;;;4.85;3.53;;;28.90;50.10;;;;;;5062209;28;20554;-76
2022/06/25 09:10:39;;;;;;;3.50;3.20;;;28.90;50.00;;;;;;5060907;28;20032;-76
2022/06/25 09:13:07;;;;;;;3.75;3.17;;;28.90;50.30;;;;;;5060139;28;20031;-76
2022/06/25 09:15:37;;;;;;;5.30;3.70;;;28.90;50.50;;;;;;5078082;28;20033;-76
2022/06/25 09:18:11;;;;;;;6.05;3.88;;;28.90;50.50;;;;;;5059610;28;20412;-76
2022/06/25 09:21:02;;;;;;;4.00;3.60;;;28.80;50.50;;;;;;5064461;28;20042;-76
2022/06/25 09:23:32;;;;;;;4.80;3.80;;;28.70;50.50;;;;;;5048142;28;20047;-77
2022/06/25 09:26:10;;;;;;;6.07;3.20;;;28.80;50.60;;;;;;5061580;28;20074;-77
2022/06/25 09:28:42;;;;;;;4.85;2.90;;;28.70;49.90;;;;;;5057944;28;20499;-76
2022/06/25 09:31:08;;;;;;;4.13;3.38;;;28.70;50.40;;;;;;5094606;28;20511;-77
2022/06/25 09:33:37;;;;;;;3.55;3.25;;;28.60;50.50;;;;;;5057516;28;20039;-77
2022/06/25 09:36:03;;;;;;;3.50;3.15;;;28.60;51.20;;;;;;5059895;28;20033;-77
2022/06/25 09:38:31;;;;;;;4.50;3.42;;;28.60;50.70;;;;;;5059245;28;20029;-77
2022/06/25 09:40:59;;;;;;;3.25;2.90;;;28.60;50.70;;;;;;5061241;28;20036;-76
2022/06/25 09:43:47;;;;;;;5.10;3.08;;;28.60;50.90;;;;;;5059531;28;20035;-76
2022/06/25 09:46:13;;;;;;;2.80;2.60;;;28.50;51.10;;;;;;5059518;28;20139;-76
2022/06/25 09:48:41;;;;;;;3.85;3.00;;;28.50;51.10;;;;;;5062026;28;20112;-76
2022/06/25 09:51:15;;;;;;;4.15;3.00;;;28.50;51.10;;;;;;5059024;28;20716;-76
2022/06/25 09:53:49;;;;;;;3.10;2.90;;;28.50;51.30;;;;;;5091911;28;20109;-76
2022/06/25 09:56:27;;;;;;;3.58;3.28;;;28.50;51.40;;;;;;5075796;28;20407;-76
2022/06/25 09:58:54;;;;;;;5.40;3.13;;;28.40;51.60;;;;;;5060362;28;20140;-76
2022/06/25 10:01:23;;;;;;;3.70;3.00;;;28.40;51.20;;;;;;5060974;28;20034;-76
2022/06/25 10:03:49;;;;;;;3.13;2.80;;;28.40;50.60;;;;;;5061120;28;20028;-76
2022/06/25 10:06:18;;;;;;;5.63;2.97;;;28.40;51.20;;;;;;5060418;28;20032;-76
2022/06/25 10:08:48;;;;;;;4.97;3.25;;;28.40;51.00;;;;;;5062052;28;20159;-77
2022/06/25 10:11:14;;;;;;;4.38;2.88;;;28.40;51.00;;;;;;5059172;28;20377;-76
2022/06/25 10:13:42;;;;;;;4.47;2.92;;;28.30;51.00;;;;;;5058882;28;20079;-77
2022/06/25 10:16:09;;;;;;;2.70;2.33;;;28.30;51.10;;;;;;5061007;28;20156;-77
2022/06/25 10:18:36;;;;;;;3.47;2.53;;;28.30;51.10;;;;;;5061221;28;20048;-77
2022/06/25 10:21:03;;;;;;;4.57;2.80;;;28.30;50.50;;;;;;5059757;28;20037;-76
2022/06/25 10:23:29;;;;;;;3.00;2.40;;;28.30;50.20;;;;;;5057706;28;20106;-77
2022/06/25 10:25:56;;;;;;;5.53;2.63;;;28.30;50.20;;;;;;5058029;28;20510;-77
2022/06/25 10:28:27;;;;;;;2.63;2.40;;;28.30;50.20;;;;;;5059281;28;20115;-76
2022/06/25 10:30:56;;;;;;;2.97;2.67;;;28.30;49.80;;;;;;5075055;28;21193;-77
2022/06/25 10:33:25;;;;;;;2.95;2.50;;;28.30;49.90;;;;;;5059019;28;20090;-76
2022/06/25 10:35:55;;;;;;;4.25;2.58;;;28.30;50.00;;;;;;5059267;28;20032;-76
2022/06/25 10:38:25;;;;;;;2.40;2.20;;;28.30;49.50;;;;;;5058381;28;20029;-76
2022/06/25 10:40:55;;;;;;;4.22;2.75;;;28.30;49.50;;;;;;5077594;28;20040;-76
2022/06/25 10:43:49;;;;;;;3.00;2.50;;;28.30;49.70;;;;;;5075738;28;20042;-76
2022/06/25 10:46:22;;;;;;;6.53;2.83;;;28.30;49.90;;;;;;5073708;28;20044;-75
2022/06/25 10:49:18;;;;;;;3.70;2.72;;;28.20;50.00;;;;;;5060351;28;20049;-76
2022/06/25 10:51:50;;;;;;;4.35;2.90;;;28.20;50.00;;;;;;5058404;28;20426;-76
2022/06/25 10:54:22;;;;;;;3.75;2.65;;;28.20;50.00;;;;;;5058051;28;20044;-77
2022/06/25 10:56:49;;;;;;;2.70;2.50;;;28.30;50.20;;;;;;5062257;28;20143;-77
2022/06/25 10:59:34;;;;;;;2.53;2.33;;;28.20;50.20;;;;;;5059160;28;20127;-77
2022/06/25 11:02:03;;;;;;;3.03;2.65;;;28.20;50.50;;;;;;5045937;28;20043;-77
2022/06/25 11:04:31;;;;;;;3.38;2.38;;;28.20;50.80;;;;;;5059521;28;20450;-77
2022/06/25 11:07:24;;;;;;;3.40;2.90;;;28.20;50.70;;;;;;5058233;28;20420;-77
2022/06/25 11:10:00;;;;;;;3.72;2.30;;;28.20;49.70;;;;;;5057350;28;20029;-77
2022/06/25 11:12:28;;;;;;;2.75;2.55;;;28.20;50.00;;;;;;5059503;28;20032;-77
2022/06/25 11:15:01;;;;;;;2.78;2.50;;;28.20;50.20;;;;;;5060373;28;20079;-77
2022/06/25 11:17:28;;;;;;;5.80;2.72;;;28.20;50.20;;;;;;5062324;28;20422;-77
2022/06/25 11:19:54;;;;;;;3.70;2.60;;;28.20;50.40;;;;;;5062223;28;20036;-77
2022/06/25 11:22:20;;;;;;;4.10;2.60;;;28.20;50.20;;;;;;5063336;28;20040;-77
2022/06/25 11:30:20;;;;;;;2.55;2.35;;;28.10;49.70;;;;;;4999554;28;20083;-77
2022/06/25 11:32:46;;;;;;;2.58;2.38;;;28.20;50.00;;;;;;5014709;28;20026;-77
2022/06/25 11:35:12;;;;;;;2.92;2.55;;;28.10;50.00;;;;;;4999063;28;20037;-77
2022/06/25 11:37:38;;;;;;;2.75;2.30;;;28.10;50.10;;;;;;5015506;28;20112;-77
2022/06/25 11:40:17;;;;;;;4.55;2.83;;;28.10;50.30;;;;;;5015719;28;20057;-77
2022/06/25 11:42:44;;;;;;;4.45;2.45;;;28.10;50.10;;;;;;5013890;28;20037;-77
2022/06/25 11:45:10;;;;;;;3.72;2.40;;;28.10;50.20;;;;;;4987780;28;20037;-77
2022/06/25 11:47:37;;;;;;;3.45;2.30;;;28.10;50.20;;;;;;4999550;28;20042;-77
2022/06/25 11:50:10;;;;;;;3.05;2.45;;;28.10;50.20;;;;;;5013669;28;20136;-77
2022/06/25 11:52:43;;;;;;;3.17;2.58;;;28.10;50.40;;;;;;5001486;28;20726;-77
2022/06/25 11:55:10;;;;;;;3.28;2.75;;;28.10;50.90;;;;;;4998415;28;20100;-77
2022/06/25 11:57:44;;;;;;;4.72;2.80;;;28.10;50.60;;;;;;5015150;28;20037;-77
2022/06/25 12:00:13;;;;;;;5.55;2.88;;;28.10;50.40;;;;;;5032989;28;20038;-77
2022/06/25 12:02:43;;;;;;;2.78;2.55;;;28.10;50.50;;;;;;5015725;28;20037;-77
2022/06/25 12:05:11;;;;;;;3.22;2.75;;;28.10;50.50;;;;;;5043045;28;20048;-77
2022/06/25 12:07:37;;;;;;;2.97;2.78;;;28.10;51.30;;;;;;5060484;28;20028;-77
2022/06/25 12:10:11;;;;;;;4.03;2.70;;;28.10;50.70;;;;;;5061331;28;20037;-77
2022/06/25 12:12:39;;;;;;;5.37;2.70;;;28.00;50.90;;;;;;5062322;28;20033;-78
2022/06/25 12:15:06;;;;;;;3.53;2.92;;;28.00;51.20;;;;;;5061715;28;20055;-78
2022/06/25 12:17:37;;;;;;;2.97;2.67;;;28.00;51.60;;;;;;5062527;28;20033;-77
2022/06/25 12:20:11;;;;;;;3.15;2.67;;;28.00;50.90;;;;;;5062582;28;20496;-77
2022/06/25 12:22:41;;;;;;;3.13;2.55;;;28.00;50.70;;;;;;5066190;28;20040;-77
2022/06/25 12:25:09;;;;;;;2.72;2.53;;;28.00;50.60;;;;;;5049035;28;20414;-75
2022/06/25 12:27:48;;;;;;;3.28;2.97;;;28.00;50.70;;;;;;5061774;28;20041;-76
2022/06/25 12:30:29;;;;;;;3.03;2.60;;;28.00;50.70;;;;;;5048634;28;20128;-76
2022/06/25 12:33:03;;;;;;;3.03;2.80;;;28.00;50.80;;;;;;5062491;28;20509;-76
2022/06/25 12:35:30;;;;;;;2.63;2.40;;;28.00;50.90;;;;;;5065415;28;20036;-77
2022/06/25 12:38:02;;;;;;;3.70;2.55;;;28.00;51.10;;;;;;5060743;28;20070;-76
2022/06/25 12:40:30;;;;;;;3.67;2.58;;;28.00;51.20;;;;;;5064778;28;20414;-77
2022/06/25 12:43:01;;;;;;;4.32;3.08;;;28.00;51.00;;;;;;5060531;28;20106;-76
2022/06/25 12:45:31;;;;;;;2.88;2.50;;;28.00;51.10;;;;;;5063985;28;20415;-76
2022/06/25 12:47:57;;;;;;;3.92;2.67;;;28.00;51.30;;;;;;5059735;28;20047;-77
2022/06/25 12:50:26;;;;;;;3.85;2.60;;;28.00;51.20;;;;;;5059561;28;20039;-76
2022/06/25 12:52:54;;;;;;;4.80;2.80;;;27.90;51.10;;;;;;5060050;28;20060;-76
2022/06/25 12:55:22;;;;;;;2.50;2.33;;;27.90;51.10;;;;;;5062639;28;20089;-76
2022/06/25 12:57:48;;;;;;;7.15;3.10;;;27.90;51.20;;;;;;5060796;28;20463;-76
2022/06/25 13:00:22;;;;;;;4.18;2.63;;;27.90;51.20;;;;;;5060942;28;20052;-76
2022/06/25 13:02:52;;;;;;;3.50;3.20;;;27.90;52.10;;;;;;5064746;28;20033;-77
2022/06/25 13:05:20;;;;;;;3.30;2.97;;;27.90;51.40;;;;;;5060698;28;20419;-77
2022/06/25 13:07:46;;;;;;;3.17;2.88;;;27.90;51.30;;;;;;5059617;28;20533;-76
2022/06/25 13:10:13;;;;;;;6.40;2.90;;;27.90;51.30;;;;;;5061861;28;20075;-78
2022/06/25 13:12:40;;;;;;;3.60;2.92;;;27.90;51.20;;;;;;5062368;28;20064;-77